Time;durP1;ratioP1;P1;durP2;ratioP2;P2;SDS_P1;SDS_P2;PMS_P1;PMS_P2;Temp;Humidity;BMP_temperature;BMP_pressure;BME280_temperature;BME280_humidity;BME280_pressure;Samples;Min_cycle;Max_cycle;Signal;HPM_P1;HPM_P2
2022/12/18 00:01:58;;;;;;;127.97;33.00;;;;;;;;;;5011997;28;20343;-70
2022/12/18 00:04:25;;;;;;;123.40;33.43;;;;;;;;;;5012789;28;20187;-71
2022/12/18 00:06:51;;;;;;;109.13;31.47;;;;;;;;;;5013955;28;20657;-70
2022/12/18 00:09:17;;;;;;;116.07;30.07;;;;;;;;;;5023581;28;20190;-71
2022/12/18 00:11:43;;;;;;;106.80;29.90;;;;;;;;;;5018984;28;20236;-71
2022/12/18 00:14:10;;;;;;;119.40;31.50;;;;;;;;;;5020143;28;20182;-71
2022/12/18 00:16:36;;;;;;;118.30;30.47;;;;;;;;;;5013964;28;20569;-71
2022/12/18 00:19:03;;;;;;;110.67;29.70;;;;;;;;;;5025009;28;20182;-71
2022/12/18 00:21:30;;;;;;;116.20;31.60;;;;;;;;;;5018727;28;20182;-71
2022/12/18 00:23:56;;;;;;;105.60;29.73;;;;;;;;;;5017005;28;20200;-71
2022/12/18 00:26:32;;;;;;;126.97;31.60;;;;;;;;;;5012860;28;20607;-71
2022/12/18 00:28:59;;;;;;;116.77;29.90;;;;;;;;;;5022424;28;20236;-71
2022/12/18 00:31:25;;;;;;;118.93;32.20;;;;;;;;;;5012954;28;20213;-71
2022/12/18 00:33:51;;;;;;;107.13;30.67;;;;;;;;;;5008984;28;20209;-71
2022/12/18 00:36:19;;;;;;;105.97;29.07;;;;;;;;;;5016412;28;20238;-71
2022/12/18 00:38:45;;;;;;;104.37;28.50;;;;;;;;;;5015779;28;20200;-71
2022/12/18 00:41:12;;;;;;;110.70;29.53;;;;;;;;;;5020386;28;20177;-71
2022/12/18 00:43:39;;;;;;;102.10;29.40;;;;;;;;;;5024434;28;20198;-70
2022/12/18 00:46:05;;;;;;;108.20;29.83;;;;;;;;;;5026865;28;20190;-70
2022/12/18 00:48:30;;;;;;;117.23;30.03;;;;;;;;;;5026364;28;20194;-70
2022/12/18 00:50:56;;;;;;;102.80;28.13;;;;;;;;;;5023530;28;20296;-70
2022/12/18 00:53:21;;;;;;;100.67;28.60;;;;;;;;;;5028745;28;20193;-70
2022/12/18 00:55:47;;;;;;;99.60;28.60;;;;;;;;;;5022486;28;20209;-70
2022/12/18 00:58:15;;;;;;;99.03;27.40;;;;;;;;;;5022775;28;20237;-71
2022/12/18 01:00:40;;;;;;;99.73;28.50;;;;;;;;;;5013654;28;20725;-71
2022/12/18 01:03:06;;;;;;;96.53;28.50;;;;;;;;;;5012211;28;20240;-71
2022/12/18 01:05:32;;;;;;;105.90;30.27;;;;;;;;;;5022979;28;20197;-70
2022/12/18 01:07:58;;;;;;;106.57;27.67;;;;;;;;;;5020891;28;20700;-70
2022/12/18 01:10:24;;;;;;;97.90;28.23;;;;;;;;;;5026910;28;20194;-70
2022/12/18 01:12:50;;;;;;;114.23;28.40;;;;;;;;;;5029633;28;20244;-70
2022/12/18 01:15:16;;;;;;;98.73;27.37;;;;;;;;;;5024763;28;20681;-70
2022/12/18 01:17:42;;;;;;;108.07;29.23;;;;;;;;;;5028230;28;20667;-70
2022/12/18 01:20:09;;;;;;;102.63;27.53;;;;;;;;;;5028317;28;20182;-71
2022/12/18 01:22:35;;;;;;;94.23;27.47;;;;;;;;;;5027317;28;20269;-70
2022/12/18 01:25:01;;;;;;;98.10;27.40;;;;;;;;;;5023121;28;20341;-70
2022/12/18 01:27:26;;;;;;;101.87;29.80;;;;;;;;;;5009149;28;20179;-70
2022/12/18 01:29:52;;;;;;;101.27;28.07;;;;;;;;;;5019764;28;20272;-70
2022/12/18 01:32:17;;;;;;;102.27;27.63;;;;;;;;;;5018380;28;20214;-71
2022/12/18 01:34:43;;;;;;;96.53;24.93;;;;;;;;;;5019749;28;20208;-71
2022/12/18 01:37:08;;;;;;;83.87;25.50;;;;;;;;;;5020586;28;20229;-70
2022/12/18 01:39:33;;;;;;;80.93;26.73;;;;;;;;;;5014672;28;20239;-71
2022/12/18 01:42:02;;;;;;;80.33;24.40;;;;;;;;;;5022804;28;20174;-71
2022/12/18 01:44:46;;;;;;;98.03;26.03;;;;;;;;;;5026408;28;20193;-70
2022/12/18 01:47:35;;;;;;;89.83;25.90;;;;;;;;;;5025616;28;20178;-72
2022/12/18 01:50:35;;;;;;;85.57;26.57;;;;;;;;;;5024801;28;20638;-70
2022/12/18 01:53:06;;;;;;;82.93;25.23;;;;;;;;;;5009564;28;20286;-72
2022/12/18 01:55:38;;;;;;;78.37;23.97;;;;;;;;;;5013704;28;20666;-72
2022/12/18 01:58:03;;;;;;;85.40;25.87;;;;;;;;;;5027450;28;20210;-71
2022/12/18 02:00:29;;;;;;;87.80;26.37;;;;;;;;;;5025421;28;20244;-71
2022/12/18 02:02:55;;;;;;;80.70;23.80;;;;;;;;;;5023920;28;20178;-70
2022/12/18 02:05:37;;;;;;;78.53;23.43;;;;;;;;;;5026455;28;20556;-70
2022/12/18 02:08:20;;;;;;;77.43;23.03;;;;;;;;;;5013169;28;20174;-70
2022/12/18 02:11:10;;;;;;;88.60;24.97;;;;;;;;;;5016013;28;20201;-70
2022/12/18 02:13:43;;;;;;;99.40;31.00;;;;;;;;;;5017747;28;20554;-71
2022/12/18 02:16:28;;;;;;;88.83;25.87;;;;;;;;;;5033678;28;20190;-71
2022/12/18 02:19:01;;;;;;;74.23;24.33;;;;;;;;;;5017500;28;20191;-71
2022/12/18 02:21:49;;;;;;;105.40;33.27;;;;;;;;;;5026548;28;20525;-72
2022/12/18 02:24:34;;;;;;;103.13;32.90;;;;;;;;;;5027547;28;21162;-71
2022/12/18 02:27:04;;;;;;;86.00;25.53;;;;;;;;;;5022512;28;20200;-70
2022/12/18 02:29:36;;;;;;;99.23;33.33;;;;;;;;;;5023013;28;20188;-71
2022/12/18 02:32:05;;;;;;;97.37;33.20;;;;;;;;;;5025350;28;20240;-71
2022/12/18 02:34:35;;;;;;;87.33;30.87;;;;;;;;;;5025010;28;20177;-70
2022/12/18 02:37:04;;;;;;;80.03;24.77;;;;;;;;;;5009981;28;20236;-71
2022/12/18 02:39:32;;;;;;;78.83;23.37;;;;;;;;;;5015627;28;20193;-71
2022/12/18 02:41:59;;;;;;;73.77;23.57;;;;;;;;;;5012196;28;20186;-71
2022/12/18 02:44:24;;;;;;;65.10;20.27;;;;;;;;;;5024231;28;20185;-71
2022/12/18 02:46:52;;;;;;;71.73;21.97;;;;;;;;;;5019461;28;20191;-71
2022/12/18 02:49:24;;;;;;;73.40;23.33;;;;;;;;;;5016736;28;20237;-71
2022/12/18 02:51:59;;;;;;;72.73;23.13;;;;;;;;;;5028052;28;20344;-71
2022/12/18 02:54:35;;;;;;;68.53;21.40;;;;;;;;;;5018538;28;20189;-71
2022/12/18 02:57:10;;;;;;;72.03;22.30;;;;;;;;;;5026912;28;20237;-71
2022/12/18 02:59:49;;;;;;;69.00;21.07;;;;;;;;;;5017785;28;20300;-71
2022/12/18 03:02:21;;;;;;;67.97;21.97;;;;;;;;;;5026846;28;20225;-71
2022/12/18 03:04:55;;;;;;;77.27;23.60;;;;;;;;;;5017488;28;20622;-71
2022/12/18 03:07:27;;;;;;;71.37;21.10;;;;;;;;;;5016835;28;20193;-71
2022/12/18 03:09:54;;;;;;;71.80;22.37;;;;;;;;;;5025705;28;20236;-71
2022/12/18 03:12:28;;;;;;;69.90;21.30;;;;;;;;;;5026115;28;20512;-71
2022/12/18 03:15:19;;;;;;;64.50;21.80;;;;;;;;;;5031019;28;20273;-71
2022/12/18 03:17:48;;;;;;;71.73;22.93;;;;;;;;;;5030357;28;20182;-71
2022/12/18 03:20:18;;;;;;;61.63;21.93;;;;;;;;;;5032006;28;20194;-71
2022/12/18 03:22:48;;;;;;;69.20;21.73;;;;;;;;;;5014345;28;20249;-71
2022/12/18 03:25:16;;;;;;;61.13;20.57;;;;;;;;;;5015312;28;20198;-71
2022/12/18 03:27:56;;;;;;;61.53;20.10;;;;;;;;;;5016682;28;20199;-71
2022/12/18 03:30:21;;;;;;;60.17;19.47;;;;;;;;;;5021415;28;20313;-71
2022/12/18 03:33:10;;;;;;;64.20;19.97;;;;;;;;;;5011235;28;20289;-71
2022/12/18 03:35:39;;;;;;;62.77;20.67;;;;;;;;;;5024364;28;20624;-72
2022/12/18 03:38:06;;;;;;;62.73;19.40;;;;;;;;;;5016590;28;20249;-71
2022/12/18 03:40:53;;;;;;;59.40;19.27;;;;;;;;;;5027486;28;20502;-70
2022/12/18 03:43:31;;;;;;;60.77;18.90;;;;;;;;;;5021799;28;20186;-71
2022/12/18 03:46:06;;;;;;;49.30;19.03;;;;;;;;;;5017085;28;20209;-71
2022/12/18 03:48:39;;;;;;;65.73;24.50;;;;;;;;;;5023023;28;20200;-71
2022/12/18 03:51:14;;;;;;;52.10;19.23;;;;;;;;;;5025105;28;20264;-71
2022/12/18 03:53:58;;;;;;;53.40;17.73;;;;;;;;;;5030630;28;20224;-71
2022/12/18 03:56:26;;;;;;;54.27;18.70;;;;;;;;;;5029354;28;20192;-71
2022/12/18 03:58:53;;;;;;;49.43;18.30;;;;;;;;;;5030650;28;20190;-72
2022/12/18 04:01:22;;;;;;;52.53;17.40;;;;;;;;;;5025919;28;20259;-71
2022/12/18 04:03:49;;;;;;;43.37;16.90;;;;;;;;;;5026680;28;20194;-71
2022/12/18 04:06:16;;;;;;;58.30;17.03;;;;;;;;;;5019614;28;20186;-71
2022/12/18 04:08:42;;;;;;;55.67;18.37;;;;;;;;;;5032444;28;20255;-71
2022/12/18 04:11:07;;;;;;;56.20;18.63;;;;;;;;;;5029439;28;20198;-71
2022/12/18 04:13:35;;;;;;;58.40;17.63;;;;;;;;;;5019507;28;20230;-71
2022/12/18 04:16:01;;;;;;;53.17;18.10;;;;;;;;;;5023364;28;20591;-71
2022/12/18 04:18:26;;;;;;;55.03;18.70;;;;;;;;;;5021774;28;20193;-71
2022/12/18 04:20:52;;;;;;;54.47;18.53;;;;;;;;;;5018470;28;20197;-71
2022/12/18 04:23:17;;;;;;;56.10;18.10;;;;;;;;;;5017584;28;20186;-71
2022/12/18 04:25:42;;;;;;;51.33;18.17;;;;;;;;;;5029381;28;20201;-71
2022/12/18 04:28:08;;;;;;;60.80;19.70;;;;;;;;;;5026119;28;20283;-71
2022/12/18 04:30:33;;;;;;;50.47;19.10;;;;;;;;;;5020979;28;20251;-71
2022/12/18 04:32:59;;;;;;;52.40;18.37;;;;;;;;;;5028902;28;20196;-72
2022/12/18 04:35:24;;;;;;;55.90;18.67;;;;;;;;;;5024501;28;20232;-71
2022/12/18 04:37:49;;;;;;;50.63;18.20;;;;;;;;;;5018063;28;20296;-71
2022/12/18 04:40:15;;;;;;;52.67;18.83;;;;;;;;;;5023146;28;20193;-71
2022/12/18 04:42:40;;;;;;;51.30;20.67;;;;;;;;;;5022185;28;20269;-71
2022/12/18 04:45:06;;;;;;;65.53;25.67;;;;;;;;;;5025775;28;20248;-71
2022/12/18 04:47:32;;;;;;;64.77;24.40;;;;;;;;;;5028718;28;20613;-71
2022/12/18 04:49:57;;;;;;;66.63;24.30;;;;;;;;;;5028623;28;20276;-72
2022/12/18 04:52:23;;;;;;;69.47;23.57;;;;;;;;;;5019120;28;20210;-71
2022/12/18 04:54:48;;;;;;;64.77;23.93;;;;;;;;;;5018330;28;20209;-71
2022/12/18 04:57:13;;;;;;;60.67;24.23;;;;;;;;;;5028155;28;20280;-71
2022/12/18 04:59:39;;;;;;;61.13;23.73;;;;;;;;;;5021438;28;20194;-71
2022/12/18 05:02:04;;;;;;;55.93;22.27;;;;;;;;;;5026712;28;20200;-71
2022/12/18 05:04:29;;;;;;;52.63;22.43;;;;;;;;;;5024562;28;20189;-71
2022/12/18 05:06:55;;;;;;;54.70;22.13;;;;;;;;;;5025830;28;20764;-72
2022/12/18 05:09:20;;;;;;;55.27;22.70;;;;;;;;;;5012271;28;20251;-72
2022/12/18 05:11:46;;;;;;;68.00;24.17;;;;;;;;;;5025800;28;20569;-72
2022/12/18 05:14:12;;;;;;;58.63;23.67;;;;;;;;;;5026080;28;20197;-71
2022/12/18 05:16:37;;;;;;;57.10;23.37;;;;;;;;;;5024225;28;20194;-72
2022/12/18 05:19:02;;;;;;;58.30;21.50;;;;;;;;;;5029165;28;20188;-72
2022/12/18 05:21:28;;;;;;;63.53;23.27;;;;;;;;;;5022582;28;20320;-72
2022/12/18 05:23:53;;;;;;;56.30;21.63;;;;;;;;;;5023141;28;20280;-72
2022/12/18 05:26:19;;;;;;;55.87;21.73;;;;;;;;;;5021394;28;20290;-72
2022/12/18 05:28:44;;;;;;;60.37;22.93;;;;;;;;;;5021761;28;20674;-72
2022/12/18 05:31:10;;;;;;;59.07;23.83;;;;;;;;;;5018883;28;20213;-72
2022/12/18 05:33:35;;;;;;;60.83;23.97;;;;;;;;;;5026595;28;20185;-71
2022/12/18 05:36:02;;;;;;;58.00;22.67;;;;;;;;;;5024220;28;20279;-72
2022/12/18 05:38:28;;;;;;;61.20;23.07;;;;;;;;;;5027598;28;20194;-71
2022/12/18 05:40:55;;;;;;;61.13;23.20;;;;;;;;;;5021070;28;20189;-71
2022/12/18 05:43:21;;;;;;;58.70;22.50;;;;;;;;;;5023610;28;20182;-71
2022/12/18 05:45:47;;;;;;;59.40;22.33;;;;;;;;;;5026490;28;20185;-71
2022/12/18 05:48:13;;;;;;;51.37;22.20;;;;;;;;;;5021553;28;20653;-71
2022/12/18 05:50:41;;;;;;;57.70;22.37;;;;;;;;;;5026606;28;20238;-72
2022/12/18 05:53:07;;;;;;;54.47;22.87;;;;;;;;;;5029358;28;20182;-72
2022/12/18 05:55:37;;;;;;;55.63;21.73;;;;;;;;;;5021822;28;20317;-72
2022/12/18 05:58:04;;;;;;;49.23;21.07;;;;;;;;;;5015192;28;20241;-72
2022/12/18 06:00:30;;;;;;;54.73;21.37;;;;;;;;;;5021494;28;20285;-71
2022/12/18 06:02:55;;;;;;;52.83;20.97;;;;;;;;;;5024027;28;20273;-71
2022/12/18 06:05:21;;;;;;;53.23;21.33;;;;;;;;;;5027643;28;20235;-71
2022/12/18 06:07:46;;;;;;;48.80;20.90;;;;;;;;;;5009514;28;20195;-71
2022/12/18 06:10:11;;;;;;;55.10;20.50;;;;;;;;;;5010616;28;20191;-71
2022/12/18 06:12:37;;;;;;;55.90;21.47;;;;;;;;;;5010843;28;20218;-71
2022/12/18 06:15:03;;;;;;;50.77;20.33;;;;;;;;;;5013414;28;20193;-71
2022/12/18 06:17:32;;;;;;;54.70;22.13;;;;;;;;;;5026888;28;20599;-72
2022/12/18 06:19:58;;;;;;;51.67;19.83;;;;;;;;;;5022507;28;20198;-71
2022/12/18 06:22:23;;;;;;;52.37;20.97;;;;;;;;;;5011538;28;20191;-71
2022/12/18 06:24:49;;;;;;;47.13;19.77;;;;;;;;;;5012273;28;20174;-72
2022/12/18 06:27:14;;;;;;;53.17;20.77;;;;;;;;;;5029108;28;20197;-71
2022/12/18 06:29:39;;;;;;;48.53;20.90;;;;;;;;;;5013749;28;20514;-72
2022/12/18 06:32:05;;;;;;;49.53;20.03;;;;;;;;;;5021097;28;20685;-72
2022/12/18 06:34:30;;;;;;;51.60;20.40;;;;;;;;;;5010190;28;20717;-71
2022/12/18 06:36:55;;;;;;;54.67;20.67;;;;;;;;;;5014933;28;20907;-71
2022/12/18 06:39:21;;;;;;;47.30;20.13;;;;;;;;;;5020706;28;20733;-71
2022/12/18 06:41:46;;;;;;;50.57;20.10;;;;;;;;;;5022113;28;20182;-72
2022/12/18 06:44:11;;;;;;;46.17;18.77;;;;;;;;;;5012411;28;20650;-72
2022/12/18 06:46:37;;;;;;;48.93;20.03;;;;;;;;;;5017165;28;20197;-72
2022/12/18 06:49:03;;;;;;;51.17;19.87;;;;;;;;;;5024510;28;20306;-71
2022/12/18 06:51:29;;;;;;;50.40;19.10;;;;;;;;;;5014760;28;20218;-72
2022/12/18 06:53:54;;;;;;;45.60;18.97;;;;;;;;;;5018518;28;20179;-71
2022/12/18 06:56:19;;;;;;;44.07;18.00;;;;;;;;;;5014925;28;20194;-71
2022/12/18 06:58:45;;;;;;;46.73;19.67;;;;;;;;;;5011142;28;20214;-71
2022/12/18 07:01:12;;;;;;;47.80;20.00;;;;;;;;;;5018595;28;20210;-73
2022/12/18 07:03:39;;;;;;;45.23;18.80;;;;;;;;;;5026731;28;20532;-73
2022/12/18 07:06:04;;;;;;;40.70;17.77;;;;;;;;;;5024161;28;20239;-73
2022/12/18 07:08:31;;;;;;;41.80;18.23;;;;;;;;;;5015714;28;20186;-73
2022/12/18 07:10:56;;;;;;;42.30;17.07;;;;;;;;;;5026828;28;20198;-71
2022/12/18 07:13:22;;;;;;;44.80;17.33;;;;;;;;;;5021763;28;20646;-73
2022/12/18 07:15:47;;;;;;;41.37;17.50;;;;;;;;;;5016197;28;20190;-73
2022/12/18 07:18:12;;;;;;;41.67;17.30;;;;;;;;;;5017205;28;20292;-73
2022/12/18 07:20:38;;;;;;;45.37;17.90;;;;;;;;;;5009226;28;20253;-73
2022/12/18 07:23:05;;;;;;;37.47;16.93;;;;;;;;;;5012129;28;20218;-73
2022/12/18 07:25:33;;;;;;;36.87;15.83;;;;;;;;;;5016521;28;20202;-72
2022/12/18 07:27:58;;;;;;;38.23;16.03;;;;;;;;;;5026934;28;20224;-72
2022/12/18 07:30:24;;;;;;;31.17;12.63;;;;;;;;;;5027854;28;20236;-72
2022/12/18 07:32:49;;;;;;;25.17;11.80;;;;;;;;;;5011485;28;20236;-72
2022/12/18 07:35:15;;;;;;;31.43;11.83;;;;;;;;;;5009304;28;20623;-72
2022/12/18 07:37:40;;;;;;;29.63;11.53;;;;;;;;;;5019121;28;20229;-72
2022/12/18 07:40:06;;;;;;;33.97;12.20;;;;;;;;;;5023920;28;20193;-72
2022/12/18 07:42:31;;;;;;;35.80;13.27;;;;;;;;;;5022224;28;20199;-72
2022/12/18 07:45:01;;;;;;;26.67;11.23;;;;;;;;;;5022042;28;20596;-72
2022/12/18 07:47:27;;;;;;;28.13;12.40;;;;;;;;;;5016896;28;20197;-72
2022/12/18 07:49:52;;;;;;;27.70;11.07;;;;;;;;;;5013060;28;20182;-72
2022/12/18 07:52:18;;;;;;;24.40;11.27;;;;;;;;;;5014712;28;20228;-72
2022/12/18 07:54:43;;;;;;;24.87;10.67;;;;;;;;;;5010965;28;20203;-72
2022/12/18 07:57:08;;;;;;;29.07;10.80;;;;;;;;;;5011802;28;20183;-72
2022/12/18 07:59:34;;;;;;;28.83;10.67;;;;;;;;;;5013776;28;20218;-71
2022/12/18 08:02:00;;;;;;;22.37;10.37;;;;;;;;;;5016405;28;20531;-71
2022/12/18 08:04:25;;;;;;;28.50;11.80;;;;;;;;;;5013018;28;20189;-71
2022/12/18 08:06:51;;;;;;;29.30;11.80;;;;;;;;;;5011215;28;20586;-71
2022/12/18 08:09:16;;;;;;;29.13;11.33;;;;;;;;;;5017216;28;20245;-71
2022/12/18 08:11:41;;;;;;;39.73;12.00;;;;;;;;;;5018782;28;20203;-72
2022/12/18 08:14:07;;;;;;;27.27;11.90;;;;;;;;;;5013561;28;20217;-73
2022/12/18 08:16:32;;;;;;;26.03;11.60;;;;;;;;;;5014441;28;20221;-72
2022/12/18 08:18:57;;;;;;;29.70;10.73;;;;;;;;;;5024566;28;20190;-71
2022/12/18 08:21:26;;;;;;;30.40;11.53;;;;;;;;;;5023835;28;20625;-71
2022/12/18 08:23:53;;;;;;;26.73;11.27;;;;;;;;;;5021130;28;20268;-72
2022/12/18 08:26:19;;;;;;;23.50;11.03;;;;;;;;;;5024475;28;20582;-74
2022/12/18 08:28:44;;;;;;;23.30;10.77;;;;;;;;;;5027926;28;20265;-71
2022/12/18 08:31:10;;;;;;;24.73;11.67;;;;;;;;;;5028503;28;20277;-71
2022/12/18 08:33:37;;;;;;;31.80;11.83;;;;;;;;;;5012512;28;20194;-71
2022/12/18 08:36:03;;;;;;;23.57;11.53;;;;;;;;;;5017879;28;20653;-71
2022/12/18 08:38:29;;;;;;;27.63;11.63;;;;;;;;;;5011751;28;20186;-71
2022/12/18 08:41:03;;;;;;;27.77;10.80;;;;;;;;;;5013104;28;20658;-71
2022/12/18 08:46:12;;;;;;;21.80;10.03;;;;;;;;;;5019290;28;20304;-72
2022/12/18 08:48:38;;;;;;;31.37;11.63;;;;;;;;;;5023260;28;20633;-71
2022/12/18 08:51:03;;;;;;;25.10;11.10;;;;;;;;;;5010951;28;20218;-72
2022/12/18 08:53:29;;;;;;;27.40;11.10;;;;;;;;;;5013124;28;20187;-71
2022/12/18 08:55:56;;;;;;;26.33;10.33;;;;;;;;;;5009532;28;20237;-72
2022/12/18 08:58:21;;;;;;;23.23;10.73;;;;;;;;;;5021881;28;20186;-72
2022/12/18 09:00:47;;;;;;;20.93;9.60;;;;;;;;;;5013366;28;20248;-72
2022/12/18 09:03:17;;;;;;;24.03;11.77;;;;;;;;;;5010208;28;20310;-72
2022/12/18 09:05:45;;;;;;;24.20;10.47;;;;;;;;;;5013077;28;20984;-72
2022/12/18 09:08:10;;;;;;;27.53;11.37;;;;;;;;;;5011572;28;20273;-72
2022/12/18 09:10:43;;;;;;;23.57;10.53;;;;;;;;;;5022061;28;20257;-71
2022/12/18 09:13:10;;;;;;;24.37;9.27;;;;;;;;;;5014720;28;20179;-71
2022/12/18 09:15:41;;;;;;;21.93;9.90;;;;;;;;;;5013036;28;20217;-71
2022/12/18 09:18:07;;;;;;;24.57;10.07;;;;;;;;;;5018220;28;20411;-71
2022/12/18 09:20:32;;;;;;;21.60;10.13;;;;;;;;;;5024954;28;20182;-71
2022/12/18 09:22:57;;;;;;;22.23;10.23;;;;;;;;;;5020153;28;20434;-72
2022/12/18 09:25:23;;;;;;;22.23;10.63;;;;;;;;;;5025436;28;20264;-70
2022/12/18 09:27:48;;;;;;;21.93;10.70;;;;;;;;;;5021997;28;20189;-72
2022/12/18 09:30:13;;;;;;;25.27;10.20;;;;;;;;;;5018632;28;20216;-70
2022/12/18 09:32:39;;;;;;;20.87;9.63;;;;;;;;;;5025932;28;20237;-70
2022/12/18 09:35:04;;;;;;;24.43;10.80;;;;;;;;;;5024544;28;20441;-72
2022/12/18 09:37:30;;;;;;;21.13;10.50;;;;;;;;;;5022731;28;20283;-70
2022/12/18 09:39:55;;;;;;;23.67;11.10;;;;;;;;;;5012910;28;20317;-71
2022/12/18 09:42:22;;;;;;;20.87;10.17;;;;;;;;;;5027265;28;20543;-71
2022/12/18 09:44:53;;;;;;;21.37;9.77;;;;;;;;;;5029968;28;20181;-70
2022/12/18 09:47:26;;;;;;;22.00;9.70;;;;;;;;;;5028279;28;20600;-70
2022/12/18 09:50:26;;;;;;;21.07;9.83;;;;;;;;;;5017480;28;20214;-70
2022/12/18 09:52:56;;;;;;;18.87;9.63;;;;;;;;;;5020449;28;20252;-70
2022/12/18 09:55:33;;;;;;;18.87;9.77;;;;;;;;;;5024294;28;20228;-70
2022/12/18 09:58:11;;;;;;;18.63;8.70;;;;;;;;;;5029475;28;20539;-70
2022/12/18 10:00:37;;;;;;;23.07;9.67;;;;;;;;;;5026701;28;20201;-70
2022/12/18 10:03:10;;;;;;;20.90;9.47;;;;;;;;;;5026417;28;20192;-70
2022/12/18 10:05:55;;;;;;;17.17;9.10;;;;;;;;;;5035112;28;20281;-70
2022/12/18 10:08:36;;;;;;;19.50;8.93;;;;;;;;;;5020341;28;20178;-71
2022/12/18 10:11:26;;;;;;;17.70;8.50;;;;;;;;;;5013003;28;20622;-70
2022/12/18 10:13:56;;;;;;;16.10;8.70;;;;;;;;;;5022960;28;20182;-70
2022/12/18 10:16:36;;;;;;;17.17;8.93;;;;;;;;;;5010162;28;20301;-70
2022/12/18 10:19:32;;;;;;;15.70;8.07;;;;;;;;;;5024793;28;20192;-70
2022/12/18 10:22:21;;;;;;;17.17;8.90;;;;;;;;;;5009534;28;20175;-70
2022/12/18 10:25:15;;;;;;;18.13;8.27;;;;;;;;;;5023896;28;20183;-70
2022/12/18 10:27:40;;;;;;;19.00;8.63;;;;;;;;;;5021077;28;20227;-69
2022/12/18 10:30:21;;;;;;;18.90;8.20;;;;;;;;;;5011980;28;20175;-71
2022/12/18 10:32:47;;;;;;;14.83;8.47;;;;;;;;;;5004545;28;20538;-69
2022/12/18 10:35:30;;;;;;;17.97;8.87;;;;;;;;;;5011644;28;20195;-70
2022/12/18 10:38:19;;;;;;;13.80;7.90;;;;;;;;;;5020916;28;20259;-70
2022/12/18 10:41:06;;;;;;;16.97;7.47;;;;;;;;;;5011437;28;20293;-70
2022/12/18 10:43:36;;;;;;;14.63;7.93;;;;;;;;;;5029867;28;20253;-70
2022/12/18 10:46:07;;;;;;;15.20;7.67;;;;;;;;;;5011548;28;20190;-70
2022/12/18 10:48:36;;;;;;;13.63;7.47;;;;;;;;;;5025930;28;20590;-69
2022/12/18 10:51:03;;;;;;;14.30;7.23;;;;;;;;;;5020183;28;20194;-69
2022/12/18 10:53:31;;;;;;;13.93;7.17;;;;;;;;;;5020967;28;20182;-69
2022/12/18 10:55:59;;;;;;;12.53;7.03;;;;;;;;;;5016201;28;20178;-69
2022/12/18 10:58:24;;;;;;;13.03;7.10;;;;;;;;;;5027895;28;20178;-70
2022/12/18 11:01:15;;;;;;;13.33;6.67;;;;;;;;;;5025906;28;20220;-69
2022/12/18 11:03:43;;;;;;;13.00;6.87;;;;;;;;;;5008673;28;20186;-69
2022/12/18 11:06:18;;;;;;;13.97;7.00;;;;;;;;;;5009438;28;20186;-70
2022/12/18 11:08:57;;;;;;;13.67;7.17;;;;;;;;;;5020850;28;20205;-69
2022/12/18 11:11:24;;;;;;;13.47;6.80;;;;;;;;;;5024788;28;20194;-69
2022/12/18 11:14:17;;;;;;;12.80;7.00;;;;;;;;;;5021739;28;20236;-69
2022/12/18 11:16:46;;;;;;;12.27;6.13;;;;;;;;;;5012003;28;20217;-69
2022/12/18 11:19:34;;;;;;;12.13;6.30;;;;;;;;;;5009467;28;20186;-69
2022/12/18 11:22:01;;;;;;;12.00;6.93;;;;;;;;;;5029553;28;20186;-69
2022/12/18 11:24:33;;;;;;;10.17;6.30;;;;;;;;;;5027351;28;20186;-69
2022/12/18 11:27:02;;;;;;;11.07;5.97;;;;;;;;;;5008643;28;20175;-69
2022/12/18 11:29:39;;;;;;;13.70;6.27;;;;;;;;;;5023731;28;20257;-69
2022/12/18 11:32:26;;;;;;;11.67;6.63;;;;;;;;;;5026667;28;20666;-69
2022/12/18 11:34:59;;;;;;;12.13;6.63;;;;;;;;;;5027037;28;20277;-69
2022/12/18 11:37:25;;;;;;;11.73;5.83;;;;;;;;;;5024860;28;20287;-69
2022/12/18 11:40:09;;;;;;;12.33;6.63;;;;;;;;;;5031727;28;20650;-69
2022/12/18 11:42:53;;;;;;;18.27;6.77;;;;;;;;;;5027117;28;20201;-69
2022/12/18 11:45:32;;;;;;;11.70;6.27;;;;;;;;;;5027095;28;20225;-69
2022/12/18 11:48:12;;;;;;;10.70;5.93;;;;;;;;;;5014972;28;20272;-69
2022/12/18 11:50:53;;;;;;;12.47;6.50;;;;;;;;;;5027000;28;20518;-69
2022/12/18 11:53:19;;;;;;;10.70;6.07;;;;;;;;;;5018440;28;20437;-69
2022/12/18 11:56:02;;;;;;;10.50;6.17;;;;;;;;;;5028814;28;20257;-69
2022/12/18 11:58:39;;;;;;;14.20;6.53;;;;;;;;;;5027864;28;20194;-69
2022/12/18 12:01:18;;;;;;;12.73;6.20;;;;;;;;;;5024404;28;20229;-69
2022/12/18 12:04:01;;;;;;;11.63;6.20;;;;;;;;;;5025980;28;20212;-69
2022/12/18 12:06:50;;;;;;;13.00;6.47;;;;;;;;;;5022799;28;20524;-70
2022/12/18 12:09:47;;;;;;;12.50;5.87;;;;;;;;;;5021429;28;20179;-69
2022/12/18 12:12:53;;;;;;;12.57;6.03;;;;;;;;;;5023823;28;20206;-69
2022/12/18 12:15:51;;;;;;;12.17;6.07;;;;;;;;;;5021610;28;20197;-68
2022/12/18 12:18:28;;;;;;;11.63;5.67;;;;;;;;;;5023442;28;20178;-69
2022/12/18 12:21:08;;;;;;;12.97;6.40;;;;;;;;;;5024852;28;20181;-69
2022/12/18 12:23:52;;;;;;;9.30;6.03;;;;;;;;;;5017575;28;20276;-69
2022/12/18 12:26:29;;;;;;;10.20;5.93;;;;;;;;;;5015389;28;20229;-69
2022/12/18 12:29:17;;;;;;;10.00;5.57;;;;;;;;;;5026061;28;20175;-68
2022/12/18 12:31:56;;;;;;;8.20;5.53;;;;;;;;;;5021588;28;20209;-68
2022/12/18 12:34:29;;;;;;;10.23;5.47;;;;;;;;;;5034316;28;20181;-69
2022/12/18 12:36:58;;;;;;;9.73;5.73;;;;;;;;;;5026390;28;20218;-68
2022/12/18 12:39:31;;;;;;;15.77;6.00;;;;;;;;;;5013003;28;20182;-69
2022/12/18 12:44:51;;;;;;;10.63;5.80;;;;;;;;;;5009055;28;20241;-68
2022/12/18 12:47:23;;;;;;;11.13;6.10;;;;;;;;;;5011740;28;20612;-68
2022/12/18 12:49:49;;;;;;;11.53;6.37;;;;;;;;;;5016269;28;20501;-68
2022/12/18 12:52:29;;;;;;;11.87;6.20;;;;;;;;;;5011621;28;20210;-68
2022/12/18 12:54:55;;;;;;;12.20;5.73;;;;;;;;;;5012905;28;20190;-68
2022/12/18 12:57:27;;;;;;;11.47;5.70;;;;;;;;;;5012468;28;20337;-68
2022/12/18 13:00:08;;;;;;;9.97;5.77;;;;;;;;;;5017151;28;20198;-68
2022/12/18 13:02:42;;;;;;;9.43;5.50;;;;;;;;;;5015906;28;20182;-68
2022/12/18 13:05:36;;;;;;;9.37;5.67;;;;;;;;;;5025390;28;20198;-68
2022/12/18 13:08:03;;;;;;;9.83;5.47;;;;;;;;;;5021870;28;20182;-68
2022/12/18 13:10:38;;;;;;;9.83;5.63;;;;;;;;;;5021936;28;20187;-68
2022/12/18 13:13:06;;;;;;;11.03;5.60;;;;;;;;;;5018164;28;20194;-69
2022/12/18 13:16:07;;;;;;;9.17;5.10;;;;;;;;;;5023556;28;20194;-68
2022/12/18 13:18:33;;;;;;;8.43;5.00;;;;;;;;;;5008751;28;20239;-68
2022/12/18 13:20:59;;;;;;;9.23;5.60;;;;;;;;;;5027789;28;20393;-68
2022/12/18 13:23:24;;;;;;;10.23;5.43;;;;;;;;;;5012223;28;20672;-68
2022/12/18 13:25:50;;;;;;;10.00;5.83;;;;;;;;;;5021833;28;20179;-68
2022/12/18 13:28:20;;;;;;;7.53;4.63;;;;;;;;;;5012689;28;20225;-68
2022/12/18 13:30:46;;;;;;;9.03;5.63;;;;;;;;;;5029044;28;20197;-68
2022/12/18 13:33:14;;;;;;;10.07;5.33;;;;;;;;;;5014488;28;20508;-68
2022/12/18 13:35:45;;;;;;;11.17;5.50;;;;;;;;;;5021613;28;20654;-68
2022/12/18 13:38:32;;;;;;;10.20;4.80;;;;;;;;;;5022936;28;20650;-68
2022/12/18 13:41:00;;;;;;;9.27;5.50;;;;;;;;;;5021011;28;20335;-70
2022/12/18 13:43:31;;;;;;;9.33;5.40;;;;;;;;;;5019155;28;20179;-68
2022/12/18 13:46:03;;;;;;;10.30;5.47;;;;;;;;;;5019322;28;20222;-68
2022/12/18 13:48:35;;;;;;;12.27;5.23;;;;;;;;;;5014232;28;20186;-68
2022/12/18 13:51:10;;;;;;;11.30;5.80;;;;;;;;;;5014955;28;20503;-68
2022/12/18 13:53:47;;;;;;;11.43;5.57;;;;;;;;;;5010118;28;20178;-68
2022/12/18 13:56:23;;;;;;;10.63;5.73;;;;;;;;;;5009987;28;20662;-68
2022/12/18 13:59:12;;;;;;;10.87;5.80;;;;;;;;;;5013086;28;20486;-68
2022/12/18 14:01:50;;;;;;;8.97;5.27;;;;;;;;;;5013548;28;20210;-68
2022/12/18 14:04:23;;;;;;;9.90;5.97;;;;;;;;;;5013473;28;20298;-67
2022/12/18 14:06:51;;;;;;;10.53;5.60;;;;;;;;;;5023242;28;20476;-68
2022/12/18 14:09:46;;;;;;;10.47;5.93;;;;;;;;;;5014724;28;20267;-68
2022/12/18 14:15:22;;;;;;;8.67;5.33;;;;;;;;;;5016905;28;20219;-68
2022/12/18 14:17:49;;;;;;;9.60;5.73;;;;;;;;;;5017691;28;20178;-68
2022/12/18 14:20:15;;;;;;;11.60;5.50;;;;;;;;;;5015161;28;20183;-69
2022/12/18 14:22:45;;;;;;;13.33;5.93;;;;;;;;;;5018420;28;20243;-68
2022/12/18 14:25:22;;;;;;;13.17;5.97;;;;;;;;;;5014798;28;20186;-68
2022/12/18 14:27:53;;;;;;;10.83;5.70;;;;;;;;;;5013558;28;20245;-68
2022/12/18 14:30:26;;;;;;;9.87;5.73;;;;;;;;;;5011270;28;20194;-68
2022/12/18 14:33:08;;;;;;;9.60;5.43;;;;;;;;;;5016762;28;20575;-68
2022/12/18 14:35:39;;;;;;;10.37;5.67;;;;;;;;;;5013598;28;20463;-69
2022/12/18 14:38:21;;;;;;;9.53;5.77;;;;;;;;;;5011460;28;20230;-68
2022/12/18 14:40:46;;;;;;;9.60;5.80;;;;;;;;;;5014085;28;20182;-67
2022/12/18 14:43:12;;;;;;;11.17;5.70;;;;;;;;;;5008411;28;20194;-68
2022/12/18 14:45:40;;;;;;;10.53;5.90;;;;;;;;;;5012680;28;20187;-68
2022/12/18 14:48:08;;;;;;;10.27;5.50;;;;;;;;;;5016237;28;20185;-67
2022/12/18 14:50:33;;;;;;;11.70;5.87;;;;;;;;;;5014018;28;20627;-68